Time;durP1;ratioP1;P1;durP2;ratioP2;P2;SDS_P1;SDS_P2;PMS_P1;PMS_P2;Temp;Humidity;BMP_temperature;BMP_pressure;BME280_temperature;BME280_humidity;BME280_pressure;Samples;Min_cycle;Max_cycle;Signal;HPM_P1;HPM_P2
2022/07/08 00:00:14;;;;;;;11.48;3.65;;;;;;;;;;6202765;28;20232;-71
2022/07/08 00:03:35;;;;;;;8.30;2.85;;;;;;;;;;6204359;28;20241;-72
2022/07/08 00:06:56;;;;;;;14.73;4.30;;;;;;;;;;6201544;28;20655;-72
2022/07/08 00:10:17;;;;;;;10.03;3.30;;;;;;;;;;6198905;28;20495;-72
2022/07/08 00:13:37;;;;;;;11.57;3.63;;;;;;;;;;6202166;28;20229;-71
2022/07/08 00:16:58;;;;;;;7.77;3.20;;;;;;;;;;6197291;28;20249;-72
2022/07/08 00:20:19;;;;;;;15.37;3.97;;;;;;;;;;6205750;28;20251;-72
2022/07/08 00:23:41;;;;;;;7.75;2.78;;;;;;;;;;6199100;28;20261;-72
2022/07/08 00:27:01;;;;;;;11.20;4.88;;;;;;;;;;6205684;28;20244;-71
2022/07/08 00:30:22;;;;;;;6.13;2.63;;;;;;;;;;6201200;28;20232;-72
2022/07/08 00:33:42;;;;;;;8.03;2.47;;;;;;;;;;6202404;28;20242;-71
2022/07/08 00:37:03;;;;;;;11.83;3.13;;;;;;;;;;6202563;28;20254;-71
2022/07/08 00:40:25;;;;;;;8.93;3.60;;;;;;;;;;6201181;28;20241;-71
2022/07/08 00:43:47;;;;;;;11.73;3.27;;;;;;;;;;6203796;28;20229;-71
2022/07/08 00:47:07;;;;;;;7.87;2.67;;;;;;;;;;6204456;28;20244;-71
2022/07/08 00:50:28;;;;;;;8.73;2.90;;;;;;;;;;6204692;28;20275;-70
2022/07/08 00:53:51;;;;;;;9.90;2.77;;;;;;;;;;6204938;28;20229;-71
2022/07/08 00:57:14;;;;;;;14.90;3.63;;;;;;;;;;6203958;28;20233;-70
2022/07/08 01:00:35;;;;;;;9.60;3.43;;;;;;;;;;6200867;28;20232;-71
2022/07/08 01:03:55;;;;;;;10.17;3.60;;;;;;;;;;6200711;28;20241;-69
2022/07/08 01:07:16;;;;;;;10.30;3.50;;;;;;;;;;6200354;28;20489;-71
2022/07/08 01:10:36;;;;;;;9.43;2.90;;;;;;;;;;6202809;28;20233;-70
2022/07/08 01:13:58;;;;;;;12.33;3.43;;;;;;;;;;6203180;28;20232;-71
2022/07/08 01:17:19;;;;;;;9.60;2.70;;;;;;;;;;6201547;28;20488;-71
2022/07/08 01:20:45;;;;;;;10.63;3.65;;;;;;;;;;6204357;28;20238;-71
2022/07/08 01:24:06;;;;;;;13.40;3.60;;;;;;;;;;6204284;28;20225;-70
2022/07/08 01:27:27;;;;;;;7.47;3.00;;;;;;;;;;6203763;28;20244;-70
2022/07/08 01:30:48;;;;;;;8.73;2.65;;;;;;;;;;6204126;28;20374;-71
2022/07/08 01:34:08;;;;;;;7.32;2.53;;;;;;;;;;6203902;28;20237;-70
2022/07/08 01:37:30;;;;;;;8.57;3.15;;;;;;;;;;6204630;28;20596;-72
2022/07/08 01:40:51;;;;;;;11.75;2.85;;;;;;;;;;6203358;28;20229;-70
2022/07/08 01:44:12;;;;;;;9.50;3.80;;;;;;;;;;6202984;28;20225;-71
2022/07/08 01:47:32;;;;;;;8.75;2.38;;;;;;;;;;6197354;28;20253;-70
2022/07/08 01:50:53;;;;;;;12.10;3.05;;;;;;;;;;6200855;28;20233;-71
2022/07/08 01:54:15;;;;;;;7.28;2.83;;;;;;;;;;6178460;28;20342;-71
2022/07/08 01:57:35;;;;;;;9.57;3.40;;;;;;;;;;6203514;28;20233;-70
2022/07/08 02:00:56;;;;;;;8.18;3.03;;;;;;;;;;6198267;28;20241;-71
2022/07/08 02:04:16;;;;;;;6.97;2.80;;;;;;;;;;6182364;28;20225;-71
2022/07/08 02:07:36;;;;;;;6.83;2.67;;;;;;;;;;6199121;28;20225;-70
2022/07/08 02:14:36;;;;;;;9.20;3.03;;;;;;;;;;6198981;28;20225;-70
2022/07/08 02:17:57;;;;;;;9.00;2.90;;;;;;;;;;6196683;28;20890;-71
2022/07/08 02:21:18;;;;;;;11.27;3.33;;;;;;;;;;6205647;28;20229;-70
2022/07/08 02:24:38;;;;;;;8.77;2.37;;;;;;;;;;6182917;28;20249;-70
2022/07/08 02:28:01;;;;;;;7.87;2.00;;;;;;;;;;6198948;28;20228;-71
2022/07/08 02:31:21;;;;;;;7.63;2.07;;;;;;;;;;6194873;28;20513;-71
2022/07/08 02:34:42;;;;;;;6.70;2.10;;;;;;;;;;6197090;28;20518;-70
2022/07/08 02:38:03;;;;;;;4.80;2.07;;;;;;;;;;6201557;28;20232;-70
2022/07/08 02:41:23;;;;;;;6.77;2.23;;;;;;;;;;6195895;28;20253;-69
2022/07/08 02:44:45;;;;;;;7.27;2.20;;;;;;;;;;6201800;28;20229;-69
2022/07/08 02:48:06;;;;;;;8.80;3.27;;;;;;;;;;6201590;28;20241;-71
2022/07/08 02:51:27;;;;;;;5.37;2.30;;;;;;;;;;6200902;28;20238;-72
2022/07/08 02:54:47;;;;;;;4.63;2.30;;;;;;;;;;6193880;28;20225;-70
2022/07/08 02:58:08;;;;;;;8.43;2.70;;;;;;;;;;6205519;28;20250;-71
2022/07/08 03:01:30;;;;;;;7.70;2.83;;;;;;;;;;6204424;28;20233;-71
2022/07/08 03:04:53;;;;;;;7.23;2.50;;;;;;;;;;6200989;28;20221;-71
2022/07/08 03:08:13;;;;;;;7.60;2.33;;;;;;;;;;6195787;28;20229;-71
2022/07/08 03:11:34;;;;;;;9.33;3.43;;;;;;;;;;6201183;28;20237;-70
2022/07/08 03:14:54;;;;;;;6.93;2.70;;;;;;;;;;6199088;28;20233;-70
2022/07/08 03:18:16;;;;;;;10.90;2.73;;;;;;;;;;6201830;28;20237;-71
2022/07/08 03:21:37;;;;;;;9.40;2.63;;;;;;;;;;6200278;28;20218;-70
2022/07/08 03:24:57;;;;;;;7.33;2.13;;;;;;;;;;6202947;28;20241;-69
2022/07/08 03:28:18;;;;;;;6.33;2.33;;;;;;;;;;6199372;28;20253;-71
2022/07/08 03:31:39;;;;;;;13.93;3.37;;;;;;;;;;6199697;28;20244;-70
2022/07/08 03:35:01;;;;;;;4.00;1.83;;;;;;;;;;6202018;28;20241;-71
2022/07/08 03:38:21;;;;;;;9.70;3.13;;;;;;;;;;6201523;28;20230;-70
2022/07/08 03:41:42;;;;;;;7.93;2.63;;;;;;;;;;6200915;28;20222;-70
2022/07/08 03:45:02;;;;;;;7.50;2.07;;;;;;;;;;6195750;28;20232;-70
2022/07/08 03:48:23;;;;;;;6.37;2.50;;;;;;;;;;6212082;28;20233;-71
2022/07/08 03:51:45;;;;;;;8.20;2.93;;;;;;;;;;6204087;28;20596;-71
2022/07/08 03:55:06;;;;;;;9.43;2.20;;;;;;;;;;6201082;28;20232;-71
2022/07/08 03:58:27;;;;;;;8.27;3.25;;;;;;;;;;6203704;28;22502;-71
2022/07/08 04:01:47;;;;;;;6.97;2.60;;;;;;;;;;6194881;28;20236;-71
2022/07/08 04:05:08;;;;;;;8.10;3.20;;;;;;;;;;6202515;28;20233;-71
2022/07/08 04:08:30;;;;;;;5.80;2.07;;;;;;;;;;6202371;28;20237;-70
2022/07/08 04:11:50;;;;;;;10.07;2.33;;;;;;;;;;6203356;28;20234;-71
2022/07/08 04:15:12;;;;;;;6.03;2.03;;;;;;;;;;6202616;28;20530;-70
2022/07/08 04:18:33;;;;;;;6.70;2.47;;;;;;;;;;6201826;28;20240;-70
2022/07/08 04:21:54;;;;;;;7.40;2.90;;;;;;;;;;6193519;28;20261;-71
2022/07/08 04:25:16;;;;;;;6.43;2.10;;;;;;;;;;6193330;28;20595;-70
2022/07/08 04:28:36;;;;;;;6.03;2.57;;;;;;;;;;6199234;28;20238;-71
2022/07/08 04:31:57;;;;;;;7.53;2.37;;;;;;;;;;6198801;28;20492;-71
2022/07/08 04:35:18;;;;;;;9.00;2.67;;;;;;;;;;6199251;28;21657;-70
2022/07/08 04:38:38;;;;;;;9.32;3.00;;;;;;;;;;6200675;28;20256;-70
2022/07/08 04:42:00;;;;;;;5.67;2.40;;;;;;;;;;6198379;28;20308;-70
2022/07/08 04:45:21;;;;;;;11.02;2.83;;;;;;;;;;6201020;28;20228;-71
2022/07/08 04:48:42;;;;;;;7.57;2.47;;;;;;;;;;6202747;28;20312;-71
2022/07/08 04:52:06;;;;;;;6.35;2.30;;;;;;;;;;6202326;28;20245;-71
2022/07/08 04:55:29;;;;;;;5.72;2.38;;;;;;;;;;6199301;28;20651;-71
2022/07/08 04:58:51;;;;;;;10.25;2.67;;;;;;;;;;6199027;28;20229;-71
2022/07/08 05:02:12;;;;;;;10.48;2.33;;;;;;;;;;6195546;28;20650;-71
2022/07/08 05:05:33;;;;;;;6.78;2.92;;;;;;;;;;6200573;28;20229;-71
2022/07/08 05:08:54;;;;;;;12.85;3.45;;;;;;;;;;6199413;28;20237;-71
2022/07/08 05:12:15;;;;;;;9.45;2.58;;;;;;;;;;6198362;28;20233;-71
2022/07/08 05:15:37;;;;;;;11.95;2.78;;;;;;;;;;6197592;28;20230;-70
2022/07/08 05:18:57;;;;;;;11.02;2.70;;;;;;;;;;6199661;28;20237;-71
2022/07/08 05:22:18;;;;;;;11.00;3.00;;;;;;;;;;6201081;28;20229;-72
2022/07/08 05:25:39;;;;;;;7.55;2.38;;;;;;;;;;6199811;28;20244;-70
2022/07/08 05:29:00;;;;;;;10.30;2.90;;;;;;;;;;6198308;28;20324;-71
2022/07/08 05:32:22;;;;;;;6.90;2.60;;;;;;;;;;6201307;28;20261;-71
2022/07/08 05:35:43;;;;;;;5.07;2.33;;;;;;;;;;6201430;28;20252;-74
2022/07/08 05:39:03;;;;;;;5.83;2.50;;;;;;;;;;6194412;28;20229;-71
2022/07/08 05:42:24;;;;;;;7.45;2.00;;;;;;;;;;6197238;28;20238;-71
2022/07/08 05:45:45;;;;;;;8.23;2.22;;;;;;;;;;6199505;28;20414;-74
2022/07/08 05:49:07;;;;;;;6.60;2.13;;;;;;;;;;6198698;28;20344;-71
2022/07/08 05:52:27;;;;;;;8.80;2.55;;;;;;;;;;6198710;28;20618;-73
2022/07/08 05:55:48;;;;;;;12.25;2.40;;;;;;;;;;6198697;28;20237;-73
2022/07/08 05:59:08;;;;;;;11.38;2.55;;;;;;;;;;6205216;28;20225;-72
2022/07/08 06:02:29;;;;;;;8.98;3.20;;;;;;;;;;6195240;28;20718;-73
2022/07/08 06:05:50;;;;;;;4.47;2.30;;;;;;;;;;6196528;28;21572;-76
2022/07/08 06:09:12;;;;;;;8.68;2.33;;;;;;;;;;6202632;28;20226;-75
2022/07/08 06:12:32;;;;;;;10.30;3.03;;;;;;;;;;6202166;28;20335;-72
2022/07/08 06:15:53;;;;;;;8.63;1.83;;;;;;;;;;6201588;28;20225;-74
2022/07/08 06:19:14;;;;;;;9.38;3.13;;;;;;;;;;6197138;28;20232;-70
2022/07/08 06:22:36;;;;;;;11.83;2.47;;;;;;;;;;6203698;28;20358;-70
2022/07/08 06:25:56;;;;;;;8.38;2.92;;;;;;;;;;6198267;28;20225;-74
2022/07/08 06:29:18;;;;;;;11.07;2.88;;;;;;;;;;6206790;28;20566;-74
2022/07/08 06:32:39;;;;;;;10.15;2.03;;;;;;;;;;6199385;28;20241;-73
2022/07/08 06:35:59;;;;;;;4.25;2.40;;;;;;;;;;6193621;28;20241;-72
2022/07/08 06:39:22;;;;;;;7.50;2.55;;;;;;;;;;6195539;28;20670;-72
2022/07/08 06:42:42;;;;;;;7.83;2.60;;;;;;;;;;6204624;28;20282;-73
2022/07/08 06:46:06;;;;;;;12.88;3.95;;;;;;;;;;6194290;28;20646;-73
2022/07/08 06:49:26;;;;;;;9.50;3.63;;;;;;;;;;6191239;28;20582;-73
2022/07/08 06:52:47;;;;;;;7.20;2.75;;;;;;;;;;6192173;28;20245;-71
2022/07/08 06:56:09;;;;;;;6.17;1.90;;;;;;;;;;6199291;28;20229;-73
2022/07/08 06:59:30;;;;;;;7.38;2.15;;;;;;;;;;6202554;28;20260;-71
2022/07/08 07:02:51;;;;;;;6.43;1.90;;;;;;;;;;6199206;28;20228;-70
2022/07/08 07:06:11;;;;;;;8.20;2.70;;;;;;;;;;6205350;28;20225;-69
2022/07/08 07:09:32;;;;;;;5.65;2.45;;;;;;;;;;6202354;28;20233;-72
2022/07/08 07:12:54;;;;;;;10.80;3.70;;;;;;;;;;6198685;28;20237;-70
2022/07/08 07:16:14;;;;;;;10.18;2.78;;;;;;;;;;6204794;28;20236;-74
2022/07/08 07:19:35;;;;;;;6.43;2.60;;;;;;;;;;6200908;28;20236;-72
2022/07/08 07:22:56;;;;;;;5.07;2.47;;;;;;;;;;6208137;28;20229;-72
2022/07/08 07:26:16;;;;;;;10.20;2.63;;;;;;;;;;6192737;28;20336;-73
2022/07/08 07:29:38;;;;;;;5.13;1.83;;;;;;;;;;6204068;28;20373;-71
2022/07/08 07:32:59;;;;;;;3.75;2.08;;;;;;;;;;6194943;28;20233;-71
2022/07/08 07:36:19;;;;;;;4.70;1.83;;;;;;;;;;6197229;28;20257;-72
2022/07/08 07:39:40;;;;;;;4.80;2.63;;;;;;;;;;6201861;28;20226;-73
2022/07/08 07:43:00;;;;;;;6.63;2.55;;;;;;;;;;6199678;28;20244;-74
2022/07/08 07:46:22;;;;;;;5.07;2.33;;;;;;;;;;6205111;28;20228;-72
2022/07/08 07:49:43;;;;;;;4.50;2.15;;;;;;;;;;6197386;28;20691;-75
2022/07/08 07:53:03;;;;;;;4.32;2.05;;;;;;;;;;6202823;28;20619;-74
2022/07/08 07:56:24;;;;;;;7.78;2.35;;;;;;;;;;6186642;28;20312;-74
2022/07/08 07:59:45;;;;;;;12.55;3.80;;;;;;;;;;6187918;28;20724;-74
2022/07/08 08:03:07;;;;;;;8.55;2.92;;;;;;;;;;6199299;28;20233;-72
2022/07/08 08:06:28;;;;;;;7.18;2.25;;;;;;;;;;6194823;28;20238;-70
2022/07/08 08:09:49;;;;;;;6.50;3.08;;;;;;;;;;6196389;28;20236;-73
2022/07/08 08:13:11;;;;;;;10.95;4.22;;;;;;;;;;6201242;28;20269;-72
2022/07/08 08:16:31;;;;;;;6.53;2.93;;;;;;;;;;6184806;28;20245;-71
2022/07/08 08:19:54;;;;;;;10.93;3.78;;;;;;;;;;6200932;28;20244;-73
2022/07/08 08:23:14;;;;;;;7.55;2.80;;;;;;;;;;6200932;28;20620;-72
2022/07/08 08:26:35;;;;;;;6.00;2.40;;;;;;;;;;6203020;28;20230;-72
2022/07/08 08:29:55;;;;;;;4.40;2.47;;;;;;;;;;6197051;28;20242;-73
2022/07/08 08:33:16;;;;;;;7.05;2.67;;;;;;;;;;6202523;28;20229;-72
2022/07/08 08:36:37;;;;;;;5.10;2.45;;;;;;;;;;6189884;28;20532;-72
2022/07/08 08:40:01;;;;;;;7.40;2.75;;;;;;;;;;6186498;28;20262;-70
2022/07/08 08:43:22;;;;;;;5.85;3.15;;;;;;;;;;6193696;28;20230;-70
2022/07/08 08:46:44;;;;;;;9.27;2.47;;;;;;;;;;6189699;28;20622;-72
2022/07/08 08:53:44;;;;;;;7.87;3.23;;;;;;;;;;6195849;28;20245;-71
2022/07/08 08:57:05;;;;;;;4.40;3.17;;;;;;;;;;6202247;28;20232;-70
2022/07/08 09:00:26;;;;;;;5.68;2.80;;;;;;;;;;6199719;28;20226;-70
2022/07/08 09:03:47;;;;;;;5.70;3.08;;;;;;;;;;6199652;28;20229;-71
2022/07/08 09:07:08;;;;;;;8.35;3.13;;;;;;;;;;6202566;28;20229;-69
2022/07/08 09:10:30;;;;;;;11.45;3.45;;;;;;;;;;6199155;28;20329;-72
2022/07/08 09:14:05;;;;;;;6.05;2.42;;;;;;;;;;6198474;28;20233;-71
2022/07/08 09:17:26;;;;;;;12.70;3.78;;;;;;;;;;6200757;28;20232;-71
2022/07/08 09:20:47;;;;;;;10.55;3.03;;;;;;;;;;6193927;28;20229;-71
2022/07/08 09:24:17;;;;;;;6.63;3.80;;;;;;;;;;6193844;28;20232;-70
2022/07/08 09:27:40;;;;;;;5.07;2.58;;;;;;;;;;6187610;28;20233;-74
2022/07/08 09:31:01;;;;;;;5.82;2.63;;;;;;;;;;6195961;28;20225;-68
2022/07/08 09:34:22;;;;;;;5.07;2.40;;;;;;;;;;6194189;28;20233;-70
2022/07/08 09:37:43;;;;;;;3.83;2.28;;;;;;;;;;6186101;28;20229;-70
2022/07/08 09:41:04;;;;;;;5.38;2.40;;;;;;;;;;6190038;28;20313;-71
2022/07/08 09:44:26;;;;;;;4.05;2.33;;;;;;;;;;6197402;28;20233;-72
2022/07/08 09:47:47;;;;;;;3.67;2.10;;;;;;;;;;6193246;28;20340;-73
2022/07/08 09:51:08;;;;;;;2.78;1.65;;;;;;;;;;6190065;28;20241;-72
2022/07/08 09:54:29;;;;;;;3.00;1.83;;;;;;;;;;6199401;28;20237;-70
2022/07/08 09:57:50;;;;;;;2.47;1.90;;;;;;;;;;6202621;28;20229;-70
2022/07/08 10:01:12;;;;;;;2.80;1.73;;;;;;;;;;6193009;28;20619;-72
2022/07/08 10:04:32;;;;;;;2.85;1.23;;;;;;;;;;6196399;28;20996;-72
2022/07/08 10:07:53;;;;;;;1.58;1.15;;;;;;;;;;6197749;28;20232;-72
2022/07/08 10:11:14;;;;;;;1.05;1.00;;;;;;;;;;6190480;28;21102;-71
2022/07/08 10:14:36;;;;;;;2.08;1.33;;;;;;;;;;6202711;28;20237;-68
2022/07/08 10:18:02;;;;;;;1.55;1.13;;;;;;;;;;6197938;28;20224;-69
2022/07/08 10:21:25;;;;;;;1.95;1.50;;;;;;;;;;6194458;28;20229;-71
2022/07/08 10:24:46;;;;;;;1.80;1.45;;;;;;;;;;6194224;28;20863;-71
2022/07/08 10:28:07;;;;;;;1.67;1.10;;;;;;;;;;6190654;28;20615;-73
2022/07/08 10:31:29;;;;;;;6.90;1.50;;;;;;;;;;6173003;28;20222;-71
2022/07/08 10:35:07;;;;;;;1.40;1.10;;;;;;;;;;6181555;28;20315;-69
2022/07/08 10:38:29;;;;;;;1.98;1.10;;;;;;;;;;6179493;28;20533;-73
2022/07/08 10:42:00;;;;;;;1.30;1.15;;;;;;;;;;6171362;28;20226;-70
2022/07/08 10:45:20;;;;;;;1.48;1.00;;;;;;;;;;6180984;28;20240;-71
2022/07/08 10:48:48;;;;;;;1.90;1.23;;;;;;;;;;6193164;28;20233;-71
2022/07/08 10:52:10;;;;;;;1.92;1.58;;;;;;;;;;6187211;28;20225;-71
2022/07/08 10:55:41;;;;;;;1.45;1.30;;;;;;;;;;6194441;28;20678;-71
2022/07/08 10:59:18;;;;;;;2.05;1.85;;;;;;;;;;6194735;28;20232;-70
2022/07/08 11:02:40;;;;;;;2.28;0.85;;;;;;;;;;6200759;28;20290;-70
2022/07/08 11:06:00;;;;;;;2.78;1.40;;;;;;;;;;6200741;28;20233;-71
2022/07/08 11:09:23;;;;;;;1.70;1.50;;;;;;;;;;6202765;28;20229;-70
2022/07/08 11:12:45;;;;;;;1.73;1.52;;;;;;;;;;6196965;28;20570;-70
2022/07/08 11:16:06;;;;;;;3.75;2.05;;;;;;;;;;6196481;28;20226;-70
2022/07/08 11:19:31;;;;;;;3.50;1.50;;;;;;;;;;6199888;28;20245;-70
2022/07/08 11:22:52;;;;;;;1.83;1.58;;;;;;;;;;6205689;28;21116;-72
2022/07/08 11:26:18;;;;;;;3.30;2.35;;;;;;;;;;6200616;28;20229;-71
2022/07/08 11:29:45;;;;;;;3.25;1.33;;;;;;;;;;6199967;28;20229;-71
2022/07/08 11:33:06;;;;;;;2.53;1.42;;;;;;;;;;6198328;28;20505;-70
2022/07/08 11:36:27;;;;;;;3.33;1.60;;;;;;;;;;6191031;28;20240;-71
2022/07/08 11:39:48;;;;;;;3.33;1.63;;;;;;;;;;6194648;28;20409;-72
2022/07/08 11:43:13;;;;;;;1.77;1.00;;;;;;;;;;6199754;28;20233;-70
2022/07/08 11:46:34;;;;;;;1.33;1.10;;;;;;;;;;6192166;28;20228;-74
2022/07/08 11:49:57;;;;;;;2.40;1.10;;;;;;;;;;6201265;28;20229;-68
2022/07/08 11:53:21;;;;;;;2.67;1.17;;;;;;;;;;6197098;28;20233;-68
2022/07/08 11:56:41;;;;;;;1.42;1.05;;;;;;;;;;6188866;28;20233;-67
2022/07/08 12:00:04;;;;;;;0.95;0.65;;;;;;;;;;6204052;28;20233;-69
2022/07/08 12:03:34;;;;;;;2.78;1.38;;;;;;;;;;6197058;28;20232;-67
2022/07/08 12:06:55;;;;;;;2.53;1.35;;;;;;;;;;6197241;28;20241;-68
2022/07/08 12:10:21;;;;;;;4.72;1.77;;;;;;;;;;6175859;28;20240;-69
2022/07/08 12:13:43;;;;;;;4.70;1.27;;;;;;;;;;6195192;28;20715;-67
2022/07/08 12:17:05;;;;;;;5.72;1.85;;;;;;;;;;6197034;28;20229;-67
2022/07/08 12:20:31;;;;;;;2.30;1.70;;;;;;;;;;6186175;28;20246;-69
2022/07/08 12:23:58;;;;;;;3.72;1.90;;;;;;;;;;6189586;28;20594;-69
2022/07/08 12:27:20;;;;;;;4.15;2.25;;;;;;;;;;6194894;28;20248;-69
2022/07/08 12:30:41;;;;;;;2.67;1.45;;;;;;;;;;6185691;28;20242;-69
2022/07/08 12:34:03;;;;;;;4.25;2.08;;;;;;;;;;6182964;28;20245;-70
2022/07/08 12:37:24;;;;;;;3.08;2.03;;;;;;;;;;6183107;28;20674;-67
2022/07/08 12:40:44;;;;;;;2.83;1.60;;;;;;;;;;6186257;28;20233;-69
2022/07/08 12:44:20;;;;;;;3.83;2.10;;;;;;;;;;6185555;28;20225;-69
2022/07/08 12:47:40;;;;;;;5.72;2.58;;;;;;;;;;6200923;28;20363;-69
2022/07/08 12:51:02;;;;;;;4.38;1.75;;;;;;;;;;6205233;28;20232;-67
2022/07/08 12:54:23;;;;;;;4.53;2.00;;;;;;;;;;6198065;28;20237;-69
2022/07/08 12:57:44;;;;;;;4.82;2.53;;;;;;;;;;6200296;28;20964;-67
2022/07/08 13:01:04;;;;;;;4.20;3.13;;;;;;;;;;6194905;28;20221;-69
2022/07/08 13:04:25;;;;;;;8.20;2.53;;;;;;;;;;6197380;28;20225;-70
2022/07/08 13:07:47;;;;;;;5.97;2.13;;;;;;;;;;6183152;28;20237;-72
2022/07/08 13:11:08;;;;;;;4.95;2.30;;;;;;;;;;6190612;28;20267;-72
2022/07/08 13:14:28;;;;;;;3.55;1.98;;;;;;;;;;6191396;28;20272;-73
2022/07/08 13:17:49;;;;;;;9.93;2.25;;;;;;;;;;6193838;28;20233;-74
2022/07/08 13:21:10;;;;;;;4.53;1.80;;;;;;;;;;6202025;28;20252;-73
2022/07/08 13:24:32;;;;;;;4.72;1.77;;;;;;;;;;6199144;28;20253;-75
2022/07/08 13:27:53;;;;;;;4.53;1.65;;;;;;;;;;6194797;28;20357;-74
2022/07/08 13:31:13;;;;;;;6.43;2.15;;;;;;;;;;6195856;28;20224;-73
2022/07/08 13:34:34;;;;;;;6.55;2.15;;;;;;;;;;6196912;28;20336;-74
2022/07/08 13:37:55;;;;;;;5.95;1.80;;;;;;;;;;6194707;28;20237;-75
2022/07/08 13:41:18;;;;;;;4.90;1.88;;;;;;;;;;6199311;28;20233;-74
2022/07/08 13:44:39;;;;;;;4.65;2.20;;;;;;;;;;6197249;28;20241;-76
2022/07/08 13:47:59;;;;;;;6.88;2.67;;;;;;;;;;6188104;28;20615;-75
2022/07/08 13:51:20;;;;;;;3.80;1.80;;;;;;;;;;6190109;28;20245;-74
2022/07/08 13:54:40;;;;;;;1.95;1.40;;;;;;;;;;6189780;28;20987;-73
2022/07/08 13:58:02;;;;;;;1.65;1.55;;;;;;;;;;6191448;28;20386;-75
2022/07/08 14:01:23;;;;;;;2.97;2.05;;;;;;;;;;6194271;28;20233;-76
2022/07/08 14:04:43;;;;;;;2.83;1.40;;;;;;;;;;6197389;28;20352;-73
2022/07/08 14:08:05;;;;;;;3.60;1.60;;;;;;;;;;6193418;28;20229;-73
2022/07/08 14:11:25;;;;;;;4.80;1.50;;;;;;;;;;6191342;28;20240;-74
2022/07/08 14:14:47;;;;;;;1.55;1.05;;;;;;;;;;6198314;28;20244;-74
2022/07/08 14:18:08;;;;;;;2.30;1.45;;;;;;;;;;6202916;28;20224;-75
2022/07/08 14:21:28;;;;;;;2.67;1.23;;;;;;;;;;6205382;28;20232;-74
2022/07/08 14:24:49;;;;;;;2.45;1.52;;;;;;;;;;6201812;28;20502;-75
2022/07/08 14:28:10;;;;;;;2.83;1.60;;;;;;;;;;6201283;28;20701;-75
2022/07/08 14:31:31;;;;;;;6.13;1.73;;;;;;;;;;6201748;28;20518;-73
2022/07/08 14:34:52;;;;;;;3.10;1.40;;;;;;;;;;6209150;28;20237;-74
2022/07/08 14:38:13;;;;;;;6.05;2.08;;;;;;;;;;6200979;28;20233;-76
2022/07/08 14:41:33;;;;;;;2.60;1.42;;;;;;;;;;6204872;28;20225;-75
2022/07/08 14:44:54;;;;;;;3.80;1.85;;;;;;;;;;6205764;28;20248;-72
2022/07/08 14:48:16;;;;;;;4.00;1.50;;;;;;;;;;6203508;28;20221;-71
2022/07/08 14:51:36;;;;;;;2.85;1.50;;;;;;;;;;6203576;28;20233;-70
2022/07/08 14:54:57;;;;;;;5.65;1.10;;;;;;;;;;6193970;28;20463;-71
2022/07/08 14:58:18;;;;;;;4.43;1.60;;;;;;;;;;6182042;28;20535;-70
2022/07/08 15:01:38;;;;;;;3.63;1.60;;;;;;;;;;6202713;28;20726;-70
2022/07/08 15:05:00;;;;;;;5.65;1.30;;;;;;;;;;6196944;28;20233;-71
2022/07/08 15:08:23;;;;;;;3.60;1.50;;;;;;;;;;6200540;28;20225;-70
2022/07/08 15:11:43;;;;;;;3.25;1.85;;;;;;;;;;6204587;28;20233;-72
2022/07/08 15:15:05;;;;;;;3.50;1.92;;;;;;;;;;6194197;28;20241;-71
2022/07/08 15:18:25;;;;;;;4.70;2.22;;;;;;;;;;6208645;28;20221;-70
2022/07/08 15:21:47;;;;;;;2.40;2.03;;;;;;;;;;6199097;28;20248;-70
2022/07/08 15:25:08;;;;;;;5.13;2.30;;;;;;;;;;6200895;28;20600;-69
2022/07/08 15:28:29;;;;;;;3.03;1.40;;;;;;;;;;6198466;28;21516;-70
2022/07/08 15:31:50;;;;;;;3.40;1.60;;;;;;;;;;6194747;28;20240;-70
2022/07/08 15:35:11;;;;;;;5.95;2.15;;;;;;;;;;6200204;28;20233;-70
2022/07/08 15:38:33;;;;;;;4.70;1.92;;;;;;;;;;6201736;28;20225;-70
2022/07/08 15:41:53;;;;;;;3.85;1.65;;;;;;;;;;6203538;28;20233;-71
2022/07/08 15:45:14;;;;;;;3.42;2.15;;;;;;;;;;6194169;28;20253;-70
2022/07/08 15:48:36;;;;;;;6.70;1.70;;;;;;;;;;6192431;28;20224;-70
2022/07/08 15:51:57;;;;;;;2.95;1.45;;;;;;;;;;6195393;28;20272;-70
2022/07/08 15:55:19;;;;;;;3.80;1.42;;;;;;;;;;6195063;28;20292;-70
2022/07/08 15:58:39;;;;;;;5.07;1.65;;;;;;;;;;6197467;28;20244;-70
2022/07/08 16:02:00;;;;;;;4.68;1.95;;;;;;;;;;6195809;28;20253;-70
2022/07/08 16:05:21;;;;;;;5.38;2.85;;;;;;;;;;6201318;28;20256;-70
2022/07/08 16:08:41;;;;;;;3.42;1.35;;;;;;;;;;6191992;28;20233;-70
2022/07/08 16:12:03;;;;;;;4.18;2.58;;;;;;;;;;6196275;28;20316;-70
2022/07/08 16:15:24;;;;;;;3.53;1.63;;;;;;;;;;6203754;28;20225;-69
2022/07/08 16:18:45;;;;;;;5.95;1.98;;;;;;;;;;6199604;28;20777;-70
2022/07/08 16:22:05;;;;;;;5.15;1.67;;;;;;;;;;6199550;28;20225;-71
2022/07/08 16:25:27;;;;;;;4.45;2.20;;;;;;;;;;6206093;28;20563;-71
2022/07/08 16:28:49;;;;;;;4.30;1.65;;;;;;;;;;6194674;28;20244;-70
2022/07/08 16:32:10;;;;;;;5.13;2.40;;;;;;;;;;6200758;28;20328;-69
2022/07/08 16:35:30;;;;;;;5.85;2.42;;;;;;;;;;6199891;28;20328;-68
2022/07/08 16:38:51;;;;;;;8.23;2.75;;;;;;;;;;6205010;28;20236;-70
2022/07/08 16:42:12;;;;;;;5.47;2.15;;;;;;;;;;6202980;28;20233;-70
2022/07/08 16:45:35;;;;;;;3.53;1.92;;;;;;;;;;6200681;28;20826;-71
2022/07/08 16:48:56;;;;;;;6.32;2.33;;;;;;;;;;6200555;28;20233;-70
2022/07/08 16:52:17;;;;;;;5.95;2.47;;;;;;;;;;6192407;28;20610;-70
2022/07/08 16:55:37;;;;;;;5.60;2.03;;;;;;;;;;6199482;28;20233;-70
2022/07/08 16:58:58;;;;;;;4.35;2.40;;;;;;;;;;6191553;28;20226;-69
2022/07/08 17:02:20;;;;;;;2.17;1.40;;;;;;;;;;6192108;28;20240;-70
2022/07/08 17:05:41;;;;;;;10.23;3.38;;;;;;;;;;6199106;28;20349;-69
2022/07/08 17:09:01;;;;;;;4.90;2.35;;;;;;;;;;6187898;28;20619;-70
2022/07/08 17:12:22;;;;;;;6.63;3.13;;;;;;;;;;6196660;28;20256;-70
2022/07/08 17:15:43;;;;;;;7.60;3.95;;;;;;;;;;6185733;28;20237;-70
2022/07/08 17:19:05;;;;;;;5.50;2.45;;;;;;;;;;6187387;28;20233;-70
2022/07/08 17:22:26;;;;;;;4.60;2.20;;;;;;;;;;6192248;28;20253;-70
2022/07/08 17:25:47;;;;;;;5.13;2.30;;;;;;;;;;6201577;28;20260;-69
2022/07/08 17:32:45;;;;;;;5.38;2.47;;;;;;;;;;6189840;28;20222;-69
2022/07/08 17:36:07;;;;;;;3.92;2.10;;;;;;;;;;6180699;28;20233;-69
2022/07/08 17:39:28;;;;;;;3.38;2.30;;;;;;;;;;6188665;28;20237;-69
2022/07/08 17:42:48;;;;;;;3.53;1.60;;;;;;;;;;6194974;28;20230;-69
2022/07/08 17:46:10;;;;;;;4.32;2.45;;;;;;;;;;6190846;28;20260;-69
2022/07/08 17:49:31;;;;;;;4.32;2.88;;;;;;;;;;6187216;28;20225;-68
2022/07/08 17:52:53;;;;;;;5.28;1.85;;;;;;;;;;6186309;28;20626;-68
2022/07/08 17:56:14;;;;;;;4.18;1.90;;;;;;;;;;6189160;28;20237;-68
2022/07/08 17:59:34;;;;;;;6.18;2.58;;;;;;;;;;6188671;28;20233;-68
2022/07/08 18:02:55;;;;;;;4.32;1.90;;;;;;;;;;6190399;28;20229;-68
2022/07/08 18:06:16;;;;;;;4.90;2.17;;;;;;;;;;6199310;28;20496;-69
2022/07/08 18:09:38;;;;;;;3.75;2.33;;;;;;;;;;6200038;28;20228;-69
2022/07/08 18:12:58;;;;;;;4.80;1.98;;;;;;;;;;6198441;28;21908;-68
2022/07/08 18:16:19;;;;;;;7.40;3.88;;;;;;;;;;6198473;28;20240;-68
2022/07/08 18:19:39;;;;;;;5.20;2.55;;;;;;;;;;6193786;28;20249;-68
2022/07/08 18:23:00;;;;;;;4.68;2.13;;;;;;;;;;6198157;28;20233;-68
2022/07/08 18:26:22;;;;;;;5.65;2.63;;;;;;;;;;6203423;28;20713;-69
2022/07/08 18:29:43;;;;;;;6.40;2.67;;;;;;;;;;6196074;28;20229;-68
2022/07/08 18:33:03;;;;;;;7.13;2.65;;;;;;;;;;6195815;28;20629;-68
2022/07/08 18:36:24;;;;;;;7.13;2.60;;;;;;;;;;6196246;28;20355;-68
2022/07/08 18:39:44;;;;;;;5.60;2.45;;;;;;;;;;6202705;28;20229;-68
2022/07/08 18:43:06;;;;;;;5.13;2.25;;;;;;;;;;6202721;28;20607;-68
2022/07/08 18:46:27;;;;;;;4.38;2.42;;;;;;;;;;6195908;28;20870;-69
2022/07/08 18:49:48;;;;;;;7.05;3.05;;;;;;;;;;6196512;28;20232;-68
2022/07/08 18:53:08;;;;;;;4.05;2.28;;;;;;;;;;6191486;28;20631;-68
2022/07/08 18:56:29;;;;;;;3.75;2.20;;;;;;;;;;6190572;28;20806;-68
2022/07/08 18:59:51;;;;;;;8.70;2.85;;;;;;;;;;6190079;28;20229;-67
2022/07/08 19:03:11;;;;;;;6.38;3.17;;;;;;;;;;6198486;28;20236;-67
2022/07/08 19:06:32;;;;;;;6.65;3.45;;;;;;;;;;6193297;28;20225;-67
2022/07/08 19:09:52;;;;;;;8.40;3.08;;;;;;;;;;6203134;28;20321;-68
2022/07/08 19:13:13;;;;;;;6.47;3.25;;;;;;;;;;6203500;28;20229;-68
2022/07/08 19:16:35;;;;;;;6.13;3.53;;;;;;;;;;6194988;28;20912;-68
2022/07/08 19:19:55;;;;;;;14.43;4.88;;;;;;;;;;6194410;28;20605;-67
2022/07/08 19:23:16;;;;;;;6.25;2.97;;;;;;;;;;6192366;28;20796;-68
2022/07/08 19:26:37;;;;;;;7.28;3.15;;;;;;;;;;6193465;28;20574;-67
2022/07/08 19:29:57;;;;;;;4.18;2.45;;;;;;;;;;6197126;28;20229;-68
2022/07/08 19:33:19;;;;;;;11.45;4.80;;;;;;;;;;6194569;28;20245;-69
2022/07/08 19:36:40;;;;;;;7.53;3.63;;;;;;;;;;6199697;28;20250;-69
2022/07/08 19:40:00;;;;;;;7.65;3.17;;;;;;;;;;6203430;28;20332;-68
2022/07/08 19:43:21;;;;;;;11.38;4.00;;;;;;;;;;6199874;28;20331;-69
2022/07/08 19:46:41;;;;;;;7.45;3.95;;;;;;;;;;6198656;28;20237;-69
2022/07/08 19:50:04;;;;;;;7.25;3.22;;;;;;;;;;6193388;28;20274;-68
2022/07/08 19:53:25;;;;;;;14.05;3.65;;;;;;;;;;6198339;28;20229;-68
2022/07/08 19:56:45;;;;;;;8.90;3.78;;;;;;;;;;6202761;28;20264;-68
2022/07/08 20:00:08;;;;;;;6.95;2.92;;;;;;;;;;6201293;28;20229;-69
2022/07/08 20:03:32;;;;;;;8.10;2.95;;;;;;;;;;6199589;28;20248;-68
2022/07/08 20:06:54;;;;;;;8.98;4.05;;;;;;;;;;6202977;28;20329;-72
2022/07/08 20:10:15;;;;;;;7.13;3.30;;;;;;;;;;6199172;28;20237;-69
2022/07/08 20:13:36;;;;;;;10.27;3.47;;;;;;;;;;6199958;28;20537;-67